createdAt,value
2019-05-31T00:00:47.798Z,91.25
2019-05-31T00:01:47.820Z,91.92
2019-05-31T00:02:47.840Z,91.82
2019-05-31T00:03:47.861Z,91.82
2019-05-31T00:04:47.883Z,91.58
2019-05-31T00:05:47.907Z,91.49
2019-05-31T00:06:47.932Z,91.58
2019-05-31T00:07:47.944Z,91.77
2019-05-31T00:08:47.967Z,91.97
2019-05-31T00:09:47.988Z,92.16
2019-05-31T00:10:48.007Z,92.16
2019-05-31T00:11:48.031Z,92.25
2019-05-31T00:12:48.070Z,92.44
2019-05-31T00:13:48.127Z,92.06
2019-05-31T00:14:48.139Z,92.44
2019-05-31T00:15:48.146Z,92.25
2019-05-31T00:16:48.193Z,92.54
2019-05-31T00:17:48.193Z,92.35
2019-05-31T00:18:48.187Z,92.35
2019-05-31T00:19:48.210Z,92.63
2019-05-31T00:20:48.216Z,93.02
2019-05-31T00:21:48.237Z,93.21
2019-05-31T00:22:48.256Z,92.83
2019-05-31T00:23:48.279Z,92.92
2019-05-31T00:24:48.299Z,92.73
2019-05-31T00:25:48.330Z,93.02
2019-05-31T00:26:48.340Z,92.83
2019-05-31T00:27:48.362Z,92.97
2019-05-31T00:28:48.380Z,93.12
2019-05-31T00:29:48.403Z,92.88
2019-05-31T00:30:48.419Z,93.26
2019-05-31T00:31:48.442Z,93.07
2019-05-31T00:32:48.468Z,92.88
2019-05-31T00:33:48.484Z,92.78
2019-05-31T00:34:48.506Z,93.07
2019-05-31T00:35:48.527Z,93.07
2019-05-31T00:36:48.547Z,93.16
2019-05-31T00:37:48.565Z,93.64
2019-05-31T00:38:48.586Z,93.74
2019-05-31T00:39:48.610Z,93.55
2019-05-31T00:40:48.628Z,94.02
2019-05-31T00:41:48.648Z,93.55
2019-05-31T00:42:48.669Z,94.12
2019-05-31T00:43:48.688Z,93.93
2019-05-31T00:44:48.713Z,94.02
2019-05-31T00:45:48.731Z,94.21
2019-05-31T00:46:48.751Z,94.02
2019-05-31T00:47:48.775Z,94.21
2019-05-31T00:48:48.792Z,94.21
2019-05-31T00:49:48.814Z,94.21
2019-05-31T00:50:48.833Z,94.70
2019-05-31T00:51:48.853Z,94.55
2019-05-31T00:52:48.873Z,94.55
2019-05-31T00:53:48.895Z,94.60
2019-05-31T00:54:48.916Z,94.46
2019-05-31T00:55:48.936Z,94.55
2019-05-31T00:56:48.955Z,94.84
2019-05-31T00:57:48.976Z,94.74
2019-05-31T00:58:48.995Z,94.74
2019-05-31T00:59:49.016Z,94.65
2019-05-31T01:00:49.039Z,94.84
2019-05-31T01:01:49.059Z,94.84
2019-05-31T01:02:49.076Z,95.41
2019-05-31T01:03:49.097Z,95.12
2019-05-31T01:04:49.117Z,95.03
2019-05-31T01:05:49.137Z,95.12
2019-05-31T01:06:49.167Z,95.22
2019-05-31T01:07:49.175Z,95.12
2019-05-31T01:08:49.197Z,95.03
2019-05-31T01:09:49.218Z,95.22
2019-05-31T01:10:49.242Z,95.12
2019-05-31T01:11:49.259Z,95.12
2019-05-31T01:12:49.279Z,94.93
2019-05-31T01:13:49.299Z,95.03
2019-05-31T01:14:50.327Z,95.12
2019-05-31T01:15:49.339Z,95.03
2019-05-31T01:16:49.364Z,95.12
2019-05-31T01:17:49.381Z,95.03
2019-05-31T01:18:49.400Z,95.22
2019-05-31T01:19:49.421Z,95.12
2019-05-31T01:20:49.440Z,95.03
2019-05-31T01:21:49.460Z,95.12
2019-05-31T01:22:49.479Z,95.32
2019-05-31T01:23:49.500Z,95.27
2019-05-31T01:24:49.524Z,95.07
2019-05-31T01:25:49.541Z,95.27
2019-05-31T01:26:49.559Z,95.56
2019-05-31T01:27:49.580Z,95.70
2019-05-31T01:28:49.607Z,95.56
2019-05-31T01:29:49.619Z,95.46
2019-05-31T01:30:49.639Z,95.84
2019-05-31T01:31:49.659Z,95.84
2019-05-31T01:32:49.682Z,96.03
2019-05-31T01:33:49.701Z,95.94
2019-05-31T01:34:49.722Z,95.94
2019-05-31T01:35:49.739Z,96.03
2019-05-31T01:36:49.759Z,96.42
2019-05-31T01:37:49.778Z,96.51
2019-05-31T01:38:49.804Z,96.22
2019-05-31T01:39:49.820Z,96.42
2019-05-31T01:40:49.840Z,96.13
2019-05-31T01:41:49.862Z,96.22
2019-05-31T01:42:49.881Z,96.42
2019-05-31T01:43:49.901Z,96.80
2019-05-31T01:45:04.674Z,96.99
2019-05-31T01:45:49.971Z,96.80
2019-05-31T01:46:50.032Z,96.89
2019-05-31T01:47:50.033Z,96.51
2019-05-31T01:48:50.054Z,96.70
2019-05-31T01:49:50.077Z,96.22
2019-05-31T01:50:50.076Z,96.89
2019-05-31T01:51:50.081Z,96.70
2019-05-31T01:52:50.080Z,96.42
2019-05-31T01:53:50.101Z,96.42
2019-05-31T01:54:50.117Z,96.89
2019-05-31T01:55:50.140Z,96.94
2019-05-31T01:56:50.161Z,96.32
2019-05-31T01:57:50.177Z,96.17
2019-05-31T01:58:50.199Z,96.46
2019-05-31T01:59:50.215Z,96.42
2019-05-31T02:00:50.237Z,96.66
2019-05-31T02:01:50.257Z,96.66
2019-05-31T02:02:50.279Z,96.75
2019-05-31T02:03:50.297Z,97.18
2019-05-31T02:04:50.317Z,96.94
2019-05-31T02:05:50.336Z,96.46
2019-05-31T02:06:50.355Z,96.75
2019-05-31T02:07:50.375Z,97.23
2019-05-31T02:08:50.404Z,97.03
2019-05-31T02:09:50.415Z,97.03
2019-05-31T02:10:50.434Z,96.84
2019-05-31T02:11:50.453Z,97.03
2019-05-31T02:12:50.473Z,97.13
2019-05-31T02:13:50.495Z,96.75
2019-05-31T02:14:50.511Z,97.03
2019-05-31T02:15:50.535Z,97.23
2019-05-31T02:16:50.550Z,97.23
2019-05-31T02:17:50.601Z,97.03
2019-05-31T02:18:50.626Z,97.03
2019-05-31T02:19:50.611Z,97.42
2019-05-31T02:20:50.631Z,97.32
2019-05-31T02:21:50.651Z,97.42
2019-05-31T02:22:50.670Z,97.23
2019-05-31T02:23:50.689Z,97.61
2019-05-31T02:24:50.711Z,97.23
2019-05-31T02:25:50.730Z,97.32
2019-05-31T02:26:50.801Z,97.61
2019-05-31T02:27:50.770Z,97.32
2019-05-31T02:28:50.790Z,97.71
2019-05-31T02:29:50.808Z,97.52
2019-05-31T02:30:50.831Z,97.42
2019-05-31T02:31:50.848Z,97.42
2019-05-31T02:32:50.884Z,97.61
2019-05-31T02:33:50.889Z,97.52
2019-05-31T02:34:50.907Z,97.52
2019-05-31T02:35:50.927Z,97.71
2019-05-31T02:36:50.946Z,97.61
2019-05-31T02:37:50.968Z,97.32
2019-05-31T02:38:50.982Z,97.80
2019-05-31T02:39:51.003Z,97.52
2019-05-31T02:40:51.024Z,97.42
2019-05-31T02:41:51.048Z,97.71
2019-05-31T02:42:51.069Z,97.61
2019-05-31T02:43:51.081Z,97.71
2019-05-31T02:44:51.099Z,97.52
2019-05-31T02:45:51.119Z,97.61
2019-05-31T02:46:51.141Z,97.71
2019-05-31T02:47:51.159Z,97.61
2019-05-31T02:48:51.183Z,97.71
2019-05-31T02:49:51.198Z,97.99
2019-05-31T02:50:51.218Z,97.23
2019-05-31T02:51:51.235Z,97.42
2019-05-31T02:52:51.263Z,97.71
2019-05-31T02:53:51.277Z,97.99
2019-05-31T02:54:51.293Z,97.52
2019-05-31T02:55:51.315Z,97.61
2019-05-31T02:56:51.336Z,98.18
2019-05-31T02:57:51.358Z,97.80
2019-05-31T02:58:51.372Z,97.89
2019-05-31T02:59:52.262Z,97.52
2019-05-31T03:00:51.413Z,98.08
2019-05-31T03:01:51.436Z,97.80
2019-05-31T03:02:51.451Z,97.71
2019-05-31T03:03:51.471Z,97.89
2019-05-31T03:04:51.490Z,97.80
2019-05-31T03:05:51.510Z,97.71
2019-05-31T03:06:51.537Z,97.99
2019-05-31T03:07:51.547Z,98.28
2019-05-31T03:08:51.567Z,98.18
2019-05-31T03:09:51.594Z,98.08
2019-05-31T03:10:51.611Z,97.80
2019-05-31T03:11:51.626Z,98.28
2019-05-31T03:12:51.646Z,97.71
2019-05-31T03:13:51.665Z,97.61
2019-05-31T03:14:51.686Z,97.80
2019-05-31T03:16:06.324Z,97.99
2019-05-31T03:16:51.724Z,97.71
2019-05-31T03:17:51.743Z,97.71
2019-05-31T03:18:51.767Z,97.52
2019-05-31T03:19:51.782Z,98.28
2019-05-31T03:20:51.816Z,98.28
2019-05-31T03:21:51.841Z,98.23
2019-05-31T03:22:51.910Z,98.47
2019-05-31T03:23:51.894Z,98.13
2019-05-31T03:24:51.900Z,98.52
2019-05-31T03:25:51.964Z,97.99
2019-05-31T03:26:51.972Z,98.71
2019-05-31T03:27:51.960Z,98.71
2019-05-31T03:28:51.960Z,98.08
2019-05-31T03:29:51.977Z,98.13
2019-05-31T03:30:51.997Z,98.75
2019-05-31T03:31:52.027Z,98.08
2019-05-31T03:32:52.036Z,98.13
2019-05-31T03:33:52.054Z,98.13
2019-05-31T03:34:52.085Z,98.13
2019-05-31T03:35:52.092Z,98.71
2019-05-31T03:36:52.111Z,98.23
2019-05-31T03:37:52.131Z,98.28
2019-05-31T03:38:52.149Z,98.42
2019-05-31T03:39:52.180Z,98.18
2019-05-31T03:40:56.573Z,98.37
2019-05-31T03:41:52.210Z,98.57
2019-05-31T03:42:52.228Z,98.75
2019-05-31T03:43:52.248Z,98.57
2019-05-31T03:44:52.266Z,97.99
2019-05-31T03:45:52.288Z,97.99
2019-05-31T03:46:52.312Z,98.08
2019-05-31T03:47:52.329Z,98.08
2019-05-31T03:48:52.345Z,97.99
2019-05-31T03:49:52.557Z,98.18
2019-05-31T03:50:52.425Z,98.37
2019-05-31T03:51:52.401Z,98.71
2019-05-31T03:52:52.423Z,97.71
2019-05-31T03:53:52.443Z,97.80
2019-05-31T03:54:52.460Z,98.57
2019-05-31T03:55:52.484Z,97.99
2019-05-31T03:56:52.502Z,98.18
2019-05-31T03:57:52.516Z,98.47
2019-05-31T03:58:52.537Z,98.37
2019-05-31T03:59:52.561Z,98.08
2019-05-31T04:00:52.576Z,98.37
2019-05-31T04:01:52.601Z,98.08
2019-05-31T04:02:52.618Z,98.85
2019-05-31T04:03:52.638Z,97.80
2019-05-31T04:04:52.657Z,98.28
2019-05-31T04:05:52.688Z,98.57
2019-05-31T04:06:52.697Z,98.37
2019-05-31T04:07:52.715Z,97.71
2019-05-31T04:08:52.736Z,98.37
2019-05-31T04:09:52.757Z,97.99
2019-05-31T04:10:52.774Z,98.18
2019-05-31T04:11:52.797Z,98.90
2019-05-31T04:12:52.815Z,98.80
2019-05-31T04:13:52.836Z,98.23
2019-05-31T04:14:52.854Z,98.04
2019-05-31T04:15:52.875Z,97.94
2019-05-31T04:16:52.919Z,97.56
2019-05-31T04:17:52.915Z,98.04
2019-05-31T04:18:52.938Z,97.75
2019-05-31T04:19:52.963Z,97.90
2019-05-31T04:20:52.993Z,98.28
2019-05-31T04:21:52.999Z,97.71
2019-05-31T04:22:53.015Z,97.90
2019-05-31T04:23:53.035Z,97.71
2019-05-31T04:24:53.055Z,98.09
2019-05-31T04:25:53.078Z,97.80
2019-05-31T04:26:53.094Z,97.90
2019-05-31T04:27:53.115Z,97.61
2019-05-31T04:28:53.136Z,97.80
2019-05-31T04:29:53.163Z,97.80
2019-05-31T04:30:53.190Z,97.71
2019-05-31T04:31:53.199Z,97.71
2019-05-31T04:32:53.219Z,97.23
2019-05-31T04:33:53.244Z,97.61
2019-05-31T04:34:53.256Z,97.37
2019-05-31T04:35:53.280Z,97.66
2019-05-31T04:36:53.311Z,97.47
2019-05-31T04:37:53.324Z,97.28
2019-05-31T04:38:53.340Z,97.08
2019-05-31T04:39:53.364Z,97.28
2019-05-31T04:40:53.382Z,97.18
2019-05-31T04:41:53.406Z,97.28
2019-05-31T04:42:53.422Z,96.99
2019-05-31T04:43:57.794Z,96.99
2019-05-31T04:44:53.470Z,96.89
2019-05-31T04:45:53.490Z,96.80
2019-05-31T04:47:09.768Z,96.94
2019-05-31T04:47:53.526Z,97.04
2019-05-31T04:48:53.549Z,96.84
2019-05-31T04:49:53.570Z,96.66
2019-05-31T04:50:53.588Z,96.66
2019-05-31T04:51:53.611Z,96.47
2019-05-31T04:52:53.633Z,96.13
2019-05-31T04:53:53.652Z,96.32
2019-05-31T04:54:53.677Z,96.32
2019-05-31T04:55:53.712Z,96.61
2019-05-31T04:56:53.771Z,96.51
2019-05-31T04:57:53.787Z,96.03
2019-05-31T04:58:53.799Z,96.03
2019-05-31T04:59:53.872Z,96.22
2019-05-31T05:00:53.856Z,95.94
2019-05-31T05:01:53.852Z,95.60
2019-05-31T05:02:53.841Z,95.60
2019-05-31T05:03:53.865Z,95.70
2019-05-31T05:04:53.887Z,95.70
2019-05-31T05:05:53.905Z,95.41
2019-05-31T05:06:53.929Z,95.60
2019-05-31T05:07:53.959Z,95.22
2019-05-31T05:08:53.973Z,95.03
2019-05-31T05:09:53.992Z,95.17
2019-05-31T05:10:54.012Z,95.17
2019-05-31T05:11:54.035Z,95.26
2019-05-31T05:12:54.057Z,94.98
2019-05-31T05:13:54.080Z,94.98
2019-05-31T05:14:54.103Z,94.69
2019-05-31T05:15:54.129Z,94.93
2019-05-31T05:16:54.147Z,94.45
2019-05-31T05:17:54.170Z,94.45
2019-05-31T05:18:54.189Z,94.45
2019-05-31T05:19:54.215Z,94.07
2019-05-31T05:20:54.232Z,93.88
2019-05-31T05:21:54.256Z,93.73
2019-05-31T05:22:54.278Z,93.63
2019-05-31T05:23:54.298Z,93.35
2019-05-31T05:24:54.330Z,93.54
2019-05-31T05:25:54.345Z,93.35
2019-05-31T05:26:54.367Z,93.49
2019-05-31T05:27:54.389Z,93.20
2019-05-31T05:28:54.412Z,93.59
2019-05-31T05:29:54.434Z,93.49
2019-05-31T05:30:54.467Z,93.10
2019-05-31T05:31:54.480Z,92.72
2019-05-31T05:32:54.501Z,92.82
2019-05-31T05:33:54.525Z,92.72
2019-05-31T05:34:54.545Z,92.53
2019-05-31T05:35:54.569Z,92.43
2019-05-31T05:36:54.591Z,92.33
2019-05-31T05:37:54.620Z,92.29
2019-05-31T05:38:54.639Z,92.48
2019-05-31T05:39:54.660Z,92.53
2019-05-31T05:40:54.684Z,92.10
2019-05-31T05:41:54.705Z,92.29
2019-05-31T05:42:54.728Z,92.10
2019-05-31T05:43:54.751Z,92.38
2019-05-31T05:44:54.773Z,92.00
2019-05-31T05:45:54.795Z,92.38
2019-05-31T05:46:54.824Z,92.19
2019-05-31T05:47:54.843Z,92.33
2019-05-31T05:48:54.876Z,92.43
2019-05-31T05:49:54.886Z,92.38
2019-05-31T05:50:54.907Z,92.48
2019-05-31T05:51:54.935Z,92.24
2019-05-31T05:52:54.951Z,92.19
2019-05-31T05:53:54.978Z,92.19
2019-05-31T05:54:54.997Z,92.38
2019-05-31T05:55:55.020Z,92.63
2019-05-31T05:56:55.042Z,92.29
2019-05-31T05:57:55.066Z,92.29
2019-05-31T05:58:55.087Z,93.25
2019-05-31T05:59:55.109Z,92.57
2019-05-31T06:00:55.136Z,92.67
2019-05-31T06:01:55.156Z,92.48
2019-05-31T06:02:55.177Z,92.48
2019-05-31T06:03:55.199Z,92.48
2019-05-31T06:04:55.228Z,92.29
2019-05-31T06:05:55.249Z,92.38
2019-05-31T06:06:55.266Z,92.48
2019-05-31T06:07:55.289Z,92.57
2019-05-31T06:08:55.314Z,91.90
2019-05-31T06:09:57.865Z,91.81
2019-05-31T06:10:55.365Z,91.90
2019-05-31T06:11:55.381Z,92.05
2019-05-31T06:12:55.405Z,92.05
2019-05-31T06:13:55.427Z,92.14
2019-05-31T06:14:55.449Z,92.43
2019-05-31T06:15:55.471Z,92.14
2019-05-31T06:17:02.179Z,92.33
2019-05-31T06:18:01.382Z,91.75
2019-05-31T06:18:55.541Z,91.61
2019-05-31T06:19:55.562Z,91.90
2019-05-31T06:20:55.593Z,91.22
2019-05-31T06:21:55.682Z,91.03
2019-05-31T06:22:55.671Z,91.13
2019-05-31T06:23:55.691Z,90.98
2019-05-31T06:24:55.704Z,90.59
2019-05-31T06:25:55.745Z,90.69
2019-05-31T06:26:55.739Z,90.50
2019-05-31T06:27:55.753Z,90.50
2019-05-31T06:28:55.784Z,90.12
2019-05-31T06:29:55.802Z,90.35
2019-05-31T06:30:55.825Z,89.97
2019-05-31T06:31:55.849Z,90.55
2019-05-31T06:32:55.873Z,90.35
2019-05-31T06:33:55.899Z,89.97
2019-05-31T06:34:55.922Z,89.68
2019-05-31T06:35:55.949Z,89.92
2019-05-31T06:36:55.970Z,89.82
2019-05-31T06:37:56.046Z,89.63
2019-05-31T06:38:56.021Z,89.29
2019-05-31T06:39:56.043Z,89.19
2019-05-31T06:40:56.070Z,89.00
2019-05-31T06:41:56.095Z,88.95
2019-05-31T06:42:56.131Z,88.65
2019-05-31T06:43:56.149Z,88.56
2019-05-31T06:44:56.170Z,87.93
2019-05-31T06:45:56.196Z,87.26
2019-05-31T06:46:56.222Z,87.54
2019-05-31T06:47:56.251Z,86.58
2019-05-31T06:48:56.273Z,87.10
2019-05-31T06:49:56.301Z,86.62
2019-05-31T06:50:56.326Z,86.52
2019-05-31T06:51:56.352Z,86.14
2019-05-31T06:52:56.382Z,85.66
2019-05-31T06:53:56.405Z,85.85
2019-05-31T06:54:56.442Z,85.31
2019-05-31T06:55:56.460Z,85.89
2019-05-31T06:56:56.486Z,85.41
2019-05-31T06:57:56.511Z,85.12
2019-05-31T06:58:56.539Z,85.12
2019-05-31T06:59:56.564Z,85.02
2019-05-31T07:00:56.591Z,85.02
2019-05-31T07:01:56.620Z,84.48
2019-05-31T07:02:56.650Z,84.30
2019-05-31T07:03:56.672Z,84.43
2019-05-31T07:04:56.700Z,83.66
2019-05-31T07:05:57.413Z,82.79
2019-05-31T07:06:56.755Z,82.73
2019-05-31T07:07:56.786Z,82.64
2019-05-31T07:08:56.810Z,82.54
2019-05-31T07:09:56.841Z,82.10
2019-05-31T07:10:56.866Z,81.42
2019-05-31T07:11:56.894Z,81.56
2019-05-31T07:12:56.922Z,81.17
2019-05-31T07:13:56.964Z,80.49
2019-05-31T07:14:56.981Z,79.62
2019-05-31T07:15:57.012Z,79.76
2019-05-31T07:16:57.049Z,78.99
2019-05-31T07:17:57.078Z,78.99
2019-05-31T07:18:57.100Z,78.92
2019-05-31T07:19:57.130Z,77.96
2019-05-31T07:20:57.167Z,77.57
2019-05-31T07:21:57.191Z,77.61
2019-05-31T07:22:57.222Z,76.93
2019-05-31T07:23:57.253Z,76.45
2019-05-31T07:24:57.283Z,76.48
2019-05-31T07:25:57.320Z,75.51
2019-05-31T07:27:00.540Z,74.84
2019-05-31T07:27:57.377Z,74.87
2019-05-31T07:28:57.409Z,73.90
2019-05-31T07:29:57.438Z,74.49
2019-05-31T07:30:57.468Z,73.52
2019-05-31T07:31:57.503Z,73.22
2019-05-31T07:32:57.595Z,73.26
2019-05-31T07:33:57.590Z,72.87
2019-05-31T07:34:57.667Z,72.39
2019-05-31T07:35:57.667Z,71.51
2019-05-31T07:36:57.658Z,71.55
2019-05-31T07:37:57.689Z,70.77
2019-05-31T07:38:57.721Z,70.57
2019-05-31T07:39:57.781Z,70.19
2019-05-31T07:40:57.785Z,70.87
2019-05-31T07:41:57.819Z,70.67
2019-05-31T07:42:57.851Z,69.93
2019-05-31T07:43:57.886Z,69.45
2019-05-31T07:44:57.917Z,69.93
2019-05-31T07:45:57.951Z,69.06
2019-05-31T07:47:06.617Z,69.35
2019-05-31T07:47:58.013Z,68.87
2019-05-31T07:49:06.814Z,68.80
2019-05-31T07:49:58.080Z,68.80
2019-05-31T07:50:58.114Z,68.99
2019-05-31T07:51:58.151Z,68.80
2019-05-31T07:52:58.181Z,68.70
2019-05-31T07:53:58.217Z,68.02
2019-05-31T07:54:58.252Z,68.51
2019-05-31T07:55:58.279Z,68.25
2019-05-31T07:56:58.315Z,67.86
2019-05-31T07:57:58.349Z,66.99
2019-05-31T07:58:58.687Z,66.99
2019-05-31T07:59:58.416Z,66.40
2019-05-31T08:00:58.452Z,66.89
2019-05-31T08:01:58.485Z,66.79
2019-05-31T08:02:58.519Z,66.79
2019-05-31T08:03:58.550Z,66.83
2019-05-31T08:04:58.589Z,66.93
2019-05-31T08:05:58.620Z,66.53
2019-05-31T08:06:58.654Z,66.63
2019-05-31T08:07:58.695Z,66.73
2019-05-31T08:08:58.722Z,66.63
2019-05-31T08:09:58.758Z,66.63
2019-05-31T08:11:02.827Z,66.93
2019-05-31T08:11:58.823Z,66.73
2019-05-31T08:12:58.860Z,67.11
2019-05-31T08:13:58.889Z,66.93
2019-05-31T08:14:58.921Z,66.63
2019-05-31T08:15:58.957Z,67.11
2019-05-31T08:16:59.298Z,67.05
2019-05-31T08:17:59.019Z,67.54
2019-05-31T08:19:14.725Z,66.56
2019-05-31T08:19:59.088Z,65.88
2019-05-31T08:20:59.123Z,65.69
2019-05-31T08:21:59.212Z,65.82
2019-05-31T08:22:59.193Z,66.31
2019-05-31T08:23:59.229Z,65.56
2019-05-31T08:24:59.262Z,65.26
2019-05-31T08:25:59.298Z,64.59
2019-05-31T08:26:59.331Z,63.90
2019-05-31T08:27:59.363Z,64.39
2019-05-31T08:28:59.413Z,64.00
2019-05-31T08:29:59.438Z,64.00
2019-05-31T08:30:59.518Z,64.13
2019-05-31T08:31:59.521Z,64.03
2019-05-31T08:32:59.584Z,63.71
2019-05-31T08:33:59.585Z,63.93
2019-05-31T08:34:59.599Z,64.00
2019-05-31T08:35:59.634Z,63.61
2019-05-31T08:37:03.360Z,63.61
2019-05-31T08:37:59.701Z,63.71
2019-05-31T08:38:59.733Z,63.78
2019-05-31T08:39:59.766Z,63.58
2019-05-31T08:40:59.824Z,63.78
2019-05-31T08:41:59.830Z,63.84
2019-05-31T08:42:59.861Z,64.23
2019-05-31T08:43:59.893Z,64.42
2019-05-31T08:45:06.510Z,65.11
2019-05-31T08:45:59.962Z,65.20
2019-05-31T08:46:59.989Z,65.30
2019-05-31T08:48:00.021Z,65.79
2019-05-31T08:49:00.052Z,65.66
2019-05-31T08:50:00.084Z,65.66
2019-05-31T08:51:00.114Z,65.56
2019-05-31T08:52:00.147Z,65.75
2019-05-31T08:53:00.177Z,65.63
2019-05-31T08:54:00.207Z,65.85
2019-05-31T08:55:00.236Z,65.92
2019-05-31T08:56:00.268Z,66.99
2019-05-31T08:57:00.299Z,67.08
2019-05-31T08:58:00.331Z,67.54
2019-05-31T08:59:00.361Z,67.15
2019-05-31T09:00:00.392Z,67.15
2019-05-31T09:01:00.418Z,67.34
2019-05-31T09:02:09.906Z,67.70
2019-05-31T09:03:00.479Z,67.70
2019-05-31T09:04:00.541Z,68.25
2019-05-31T09:05:00.537Z,68.67
2019-05-31T09:06:00.567Z,68.35
2019-05-31T09:07:00.596Z,68.63
2019-05-31T09:08:00.626Z,68.73
2019-05-31T09:09:00.656Z,69.02
2019-05-31T09:10:00.684Z,69.32
2019-05-31T09:11:00.715Z,69.70
2019-05-31T09:12:00.744Z,69.74
2019-05-31T09:13:00.779Z,69.64
2019-05-31T09:14:00.802Z,69.06
2019-05-31T09:15:00.835Z,68.67
2019-05-31T09:16:00.864Z,68.96
2019-05-31T09:17:00.934Z,67.99
2019-05-31T09:18:00.932Z,67.63
2019-05-31T09:19:00.957Z,67.70
2019-05-31T09:20:00.991Z,67.50
2019-05-31T09:21:01.017Z,67.80
2019-05-31T09:22:01.048Z,67.70
2019-05-31T09:23:01.077Z,68.18
2019-05-31T09:24:01.299Z,68.63
2019-05-31T09:25:01.166Z,68.87
2019-05-31T09:26:01.175Z,69.80
2019-05-31T09:27:01.202Z,71.26
2019-05-31T09:28:01.229Z,71.45
2019-05-31T09:29:01.261Z,71.16
2019-05-31T09:31:01.505Z,70.48
2019-05-31T09:32:01.347Z,69.90
2019-05-31T09:33:01.439Z,69.80
2019-05-31T09:34:05.254Z,69.80
2019-05-31T09:35:01.509Z,69.86
2019-05-31T09:36:01.534Z,70.06
2019-05-31T09:37:01.516Z,70.54
2019-05-31T09:38:01.521Z,70.64
2019-05-31T09:39:01.549Z,70.35
2019-05-31T09:40:01.589Z,70.41
2019-05-31T09:41:01.607Z,70.61
2019-05-31T09:42:01.649Z,70.80
2019-05-31T09:43:01.665Z,71.09
2019-05-31T09:44:01.693Z,71.67
2019-05-31T09:45:01.721Z,71.73
2019-05-31T09:46:01.751Z,71.83
2019-05-31T09:47:01.777Z,72.51
2019-05-31T09:48:01.876Z,72.06
2019-05-31T09:49:01.835Z,72.31
2019-05-31T09:50:12.191Z,72.83
2019-05-31T09:51:01.895Z,72.74
2019-05-31T09:52:01.921Z,72.22
2019-05-31T09:53:01.952Z,72.16
2019-05-31T09:54:01.975Z,72.12
2019-05-31T09:55:02.004Z,72.55
2019-05-31T09:56:02.036Z,72.71
2019-05-31T09:57:02.070Z,72.51
2019-05-31T09:58:02.090Z,72.61
2019-05-31T09:59:02.122Z,72.25
2019-05-31T10:00:02.172Z,72.74
2019-05-31T10:01:02.175Z,73.03
2019-05-31T10:02:02.204Z,73.32
2019-05-31T10:03:02.229Z,73.26
2019-05-31T10:04:02.269Z,73.07
2019-05-31T10:05:02.289Z,72.77
2019-05-31T10:06:02.322Z,72.03
2019-05-31T10:07:02.347Z,71.84
2019-05-31T10:08:09.726Z,71.06
2019-05-31T10:09:02.412Z,70.67
2019-05-31T10:10:02.438Z,70.87
2019-05-31T10:11:02.470Z,71.29
2019-05-31T10:12:02.500Z,71.20
2019-05-31T10:13:02.528Z,70.71
2019-05-31T10:14:02.637Z,70.61
2019-05-31T10:15:02.587Z,70.61
2019-05-31T10:16:02.617Z,70.16
2019-05-31T10:17:02.655Z,69.87
2019-05-31T10:18:02.681Z,69.29
2019-05-31T10:19:02.710Z,69.09
2019-05-31T10:20:02.747Z,69.09
2019-05-31T10:21:02.780Z,69.09
2019-05-31T10:22:02.800Z,68.74
2019-05-31T10:23:02.833Z,68.54
2019-05-31T10:24:02.862Z,68.93
2019-05-31T10:25:02.891Z,68.54
2019-05-31T10:26:02.929Z,68.15
2019-05-31T10:27:02.952Z,67.38
2019-05-31T10:28:02.994Z,67.28
2019-05-31T10:29:03.017Z,67.47
2019-05-31T10:30:03.061Z,67.67
2019-05-31T10:31:14.912Z,68.29
2019-05-31T10:32:03.110Z,68.19
2019-05-31T10:33:03.142Z,67.93
2019-05-31T10:34:03.170Z,66.96
2019-05-31T10:35:03.202Z,66.66
2019-05-31T10:36:03.236Z,66.17
2019-05-31T10:37:03.265Z,66.21
2019-05-31T10:38:03.376Z,65.92
2019-05-31T10:39:03.375Z,65.43
2019-05-31T10:40:03.426Z,65.66
2019-05-31T10:41:03.429Z,65.36
2019-05-31T10:42:18.790Z,64.97
2019-05-31T10:43:03.464Z,64.97
2019-05-31T10:44:03.609Z,64.23
2019-05-31T10:45:03.547Z,64.45
2019-05-31T10:46:03.567Z,64.75
2019-05-31T10:47:03.601Z,63.70
2019-05-31T10:48:03.644Z,63.05
2019-05-31T10:49:06.594Z,62.30
2019-05-31T10:50:03.710Z,61.52
2019-05-31T10:51:03.744Z,61.35
2019-05-31T10:52:03.782Z,60.89
2019-05-31T10:53:03.816Z,60.60
2019-05-31T10:54:03.853Z,59.46
2019-05-31T10:55:03.892Z,58.80
2019-05-31T10:56:03.929Z,58.41
2019-05-31T10:57:03.967Z,58.15
2019-05-31T10:58:04.004Z,58.34
2019-05-31T10:59:04.040Z,58.44
2019-05-31T11:00:05.978Z,57.46
2019-05-31T11:01:04.117Z,57.88
2019-05-31T11:02:04.176Z,57.10
2019-05-31T11:03:04.191Z,56.90
2019-05-31T11:04:04.229Z,56.02
2019-05-31T11:05:04.267Z,56.12
2019-05-31T11:06:04.304Z,56.21
2019-05-31T11:07:04.342Z,56.90
2019-05-31T11:08:04.384Z,56.71
2019-05-31T11:09:04.418Z,56.05
2019-05-31T11:10:04.456Z,56.54
2019-05-31T11:11:04.495Z,56.24
2019-05-31T11:12:04.530Z,55.56
2019-05-31T11:13:04.572Z,55.58
2019-05-31T11:14:04.607Z,55.19
2019-05-31T11:15:04.642Z,55.12
2019-05-31T11:16:04.683Z,54.53
2019-05-31T11:17:04.723Z,54.11
2019-05-31T11:18:04.761Z,54.63
2019-05-31T11:19:04.795Z,54.63
2019-05-31T11:20:04.883Z,53.97
2019-05-31T11:21:04.875Z,54.27
2019-05-31T11:22:04.912Z,53.09
2019-05-31T11:23:04.948Z,53.19
2019-05-31T11:24:04.988Z,53.38
2019-05-31T11:25:05.030Z,53.77
2019-05-31T11:26:05.065Z,53.48
2019-05-31T11:27:05.203Z,53.58
2019-05-31T11:28:05.392Z,53.67
2019-05-31T11:29:05.180Z,53.48
2019-05-31T11:30:05.233Z,52.99
2019-05-31T11:31:05.306Z,52.50
2019-05-31T11:32:05.378Z,53.16
2019-05-31T11:33:05.385Z,53.26
2019-05-31T11:34:05.382Z,52.80
2019-05-31T11:35:05.405Z,52.80
2019-05-31T11:36:05.556Z,52.86
2019-05-31T11:37:05.480Z,52.89
2019-05-31T11:38:05.523Z,52.96
2019-05-31T11:39:05.575Z,52.50
2019-05-31T11:40:05.597Z,52.50
2019-05-31T11:41:05.627Z,52.69
2019-05-31T11:42:05.665Z,52.40
2019-05-31T11:43:09.336Z,52.03
2019-05-31T11:44:05.740Z,51.64
2019-05-31T11:45:05.776Z,51.84
2019-05-31T11:46:05.814Z,51.96
2019-05-31T11:47:05.852Z,51.67
2019-05-31T11:48:05.890Z,51.76
2019-05-31T11:49:05.930Z,52.18
2019-05-31T11:50:05.968Z,51.98
2019-05-31T11:51:27.323Z,51.42
2019-05-31T11:52:06.045Z,50.83
2019-05-31T11:53:06.086Z,50.24
2019-05-31T11:54:06.124Z,50.26
2019-05-31T11:55:21.649Z,50.26
2019-05-31T11:56:06.204Z,50.16
2019-05-31T11:57:06.241Z,50.19
2019-05-31T11:58:06.280Z,50.26
2019-05-31T11:59:06.319Z,50.39
2019-05-31T12:00:06.363Z,49.01
2019-05-31T12:01:06.398Z,49.11
2019-05-31T12:02:06.439Z,48.44
2019-05-31T12:03:06.477Z,48.25
2019-05-31T12:04:06.516Z,48.35
2019-05-31T12:05:06.565Z,47.75
2019-05-31T12:06:06.597Z,47.85
2019-05-31T12:07:06.634Z,48.13
2019-05-31T12:08:06.675Z,48.32
2019-05-31T12:09:06.716Z,48.32
2019-05-31T12:10:06.752Z,48.42
2019-05-31T12:11:06.790Z,48.52
2019-05-31T12:12:06.830Z,48.61
2019-05-31T12:13:06.869Z,48.42
2019-05-31T12:14:06.913Z,48.52
2019-05-31T12:15:06.946Z,49.21
2019-05-31T12:16:06.986Z,48.71
2019-05-31T12:17:07.027Z,48.91
2019-05-31T12:18:07.064Z,49.33
2019-05-31T12:19:07.104Z,48.64
2019-05-31T12:20:13.914Z,48.54
2019-05-31T12:21:07.248Z,48.14
2019-05-31T12:22:07.242Z,48.25
2019-05-31T12:23:07.302Z,48.22
2019-05-31T12:24:07.307Z,48.03
2019-05-31T12:25:07.332Z,48.22
2019-05-31T12:26:07.371Z,48.20
2019-05-31T12:27:07.412Z,48.59
2019-05-31T12:28:07.445Z,48.86
2019-05-31T12:29:07.482Z,49.06
2019-05-31T12:30:20.826Z,49.43
2019-05-31T12:31:10.687Z,49.31
2019-05-31T12:32:07.592Z,49.99
2019-05-31T12:33:07.627Z,50.46
2019-05-31T12:34:07.665Z,50.83
2019-05-31T12:35:07.700Z,51.22
2019-05-31T12:36:07.736Z,51.96
2019-05-31T12:37:07.772Z,52.06
2019-05-31T12:38:07.805Z,52.64
2019-05-31T12:39:07.840Z,53.20
2019-05-31T12:40:07.878Z,53.40
2019-05-31T12:41:07.931Z,53.77
2019-05-31T12:42:07.942Z,54.16
2019-05-31T12:43:07.979Z,54.33
2019-05-31T12:44:08.011Z,54.89
2019-05-31T12:45:08.058Z,55.18
2019-05-31T12:46:08.080Z,55.67
2019-05-31T12:47:08.116Z,55.84
2019-05-31T12:48:08.193Z,56.50
2019-05-31T12:49:08.180Z,56.99
2019-05-31T12:50:08.229Z,56.96
2019-05-31T12:51:08.244Z,57.35
2019-05-31T12:52:08.273Z,57.62
2019-05-31T12:53:08.309Z,58.30
2019-05-31T12:54:08.340Z,58.30